METAR Data
IDs: Format: Raw Decoded Include TAF

Data at: 2045 UTC 02 Aug 2021

KSEE 021949Z 28011KT 10SM SKC 36/09 A2998
KSEE 021847Z 25004KT 10SM SKC 34/11 A3000
KSEE 021747Z 00000KT 10SM SKC 32/12 A3002
KSEE 021647Z 00000KT 10SM SKC 28/09 A3004
KSEE 021547Z 00000KT 10SM SKC 24/09 A3006
KSEE 021447Z 00000KT 10SM SKC 20/10 A3005
KSEE 021347Z 00000KT 10SM SKC 17/09 A3005
KSEE 021335Z AUTO 00000KT 10SM CLR 17/09 A3004 RMK AO2
KSEE 021315Z AUTO 00000KT 10SM CLR 17/09 A3004 RMK AO2
KSEE 021255Z AUTO 00000KT 10SM CLR 17/09 A3003 RMK AO2
KSEE 021235Z AUTO 00000KT 10SM CLR 17/09 A3003 RMK AO2
KSEE 021215Z AUTO 00000KT 10SM CLR 17/09 A3002 RMK AO2
KSEE 021155Z AUTO 00000KT 10SM CLR 17/09 A3001 RMK AO2
KSEE 021135Z AUTO 00000KT 10SM CLR 17/09 A3001 RMK AO2
KSEE 021115Z AUTO 00000KT 10SM CLR 18/09 A3001 RMK AO2
KSEE 021055Z AUTO 00000KT 10SM CLR 18/09 A3001 RMK AO2
KSEE 021035Z AUTO 00000KT 10SM CLR 18/09 A3001 RMK AO2
KSEE 021015Z AUTO 00000KT 10SM CLR 19/09 A3001 RMK AO2
KSEE 020955Z AUTO 00000KT 10SM CLR 19/09 A3001 RMK AO2
KSEE 020935Z AUTO 00000KT 10SM CLR 18/09 A3001 RMK AO2
KSEE 020915Z AUTO 00000KT 10SM CLR 19/09 A3001 RMK AO2
KSEE 020855Z AUTO 31003KT 10SM CLR 20/09 A3002 RMK AO2
KSEE 020835Z AUTO 00000KT 10SM CLR 19/09 A3002 RMK AO2
KSEE 020815Z AUTO 28004KT 10SM CLR 19/09 A3002 RMK AO2
KSEE 020755Z AUTO 31004KT 10SM CLR 20/10 A3002 RMK AO2
KSEE 020735Z AUTO 34004KT 10SM CLR 21/09 A3002 RMK AO2
KSEE 020715Z AUTO 00000KT 10SM CLR 21/08 A3003 RMK AO2
KSEE 020655Z AUTO 00000KT 10SM CLR 22/09 A3003 RMK AO2
KSEE 020635Z AUTO 31004KT 10SM CLR 22/08 A3003 RMK AO2
KSEE 020615Z AUTO 00000KT 10SM CLR 22/08 A3003 RMK AO2
KSEE 020555Z AUTO 26004KT 10SM CLR 22/07 A3003 RMK AO2
KSEE 020535Z AUTO 30006KT 10SM CLR 22/07 A3002 RMK AO2
KSEE 020515Z AUTO 28007KT 10SM CLR 23/06 A3002 RMK AO2
KSEE 020455Z AUTO 28008KT 10SM CLR 23/07 A3002 RMK AO2
KSEE 020435Z AUTO 29007KT 10SM CLR 24/07 A3001 RMK AO2
KSEE 020415Z AUTO 29007KT 10SM CLR 24/08 A3001 RMK AO2
KSEE 020355Z AUTO 29006KT 10SM CLR 24/07 A3000 RMK AO2
KSEE 020347Z 29003KT 10SM SKC 25/07 A3001
KSEE 020335Z AUTO 29007KT 10SM CLR 25/09 A3000 RMK AO2
KSEE 020315Z AUTO 28008KT 10SM CLR 25/14 A2999 RMK AO2
KSEE 020255Z AUTO 28007KT 10SM CLR 26/14 A2999 RMK AO2
KSEE 020247Z 27009KT 10SM SKC 26/14 A3000
KSEE 020235Z AUTO 29009KT 10SM CLR 27/13 A2998 RMK AO2
KSEE 020215Z AUTO 28009KT 10SM CLR 29/10 A2998 RMK AO2
KSEE 020147Z 27010KT 10SM SKC 31/07 A2998
KSEE 020047Z 28010KT 10SM SKC 33/04 A2998
KSEE 012347Z 28011KT 10SM SKC 33/03 A2998
KSEE 012247Z 27013KT 10SM SKC 33/06 A3000
KSEE 012147Z 27012KT 10SM SKC 34/08 A3000
KSEE 012047Z 27012KT 10SM SKC 34/08 A3000
KSEE 012000Z 28012KT 10SM SKC 34/05 A3000
KSEE 011947Z 29012KT 10SM SKC 35/07 A3000
KSEE 011847Z 24005KT 10SM SKC 34/11 A3002
KSEE 011747Z 00000KT 10SM SKC 31/13 A3004
KSEE 011647Z 00000KT 10SM SKC 27/13 A3005
KSEE 011500Z 00000KT 10SM SKC 19/14 A3006
KSEE 011347Z 00000KT 10SM SKC 17/13 A3006
KSEE 010935Z AUTO 00000KT 10SM CLR 18/14 A3001 RMK AO2
KSEE 010915Z AUTO 00000KT 10SM CLR 19/13 A3001 RMK AO2
KSEE 010855Z AUTO 00000KT 10SM CLR 19/13 A3001 RMK AO2